Time;durP1;ratioP1;P1;durP2;ratioP2;P2;SDS_P1;SDS_P2;PMS_P1;PMS_P2;Temp;Humidity;BMP_temperature;BMP_pressure;BME280_temperature;BME280_humidity;BME280_pressure;Samples;Min_cycle;Max_cycle;Signal;HPM_P1;HPM_P2
2023/09/07 00:01:25;;;;;;;;;;;20.10;95.20;;;;;;5095812;28;20392;-72
2023/09/07 00:03:50;;;;;;;;;;;20.10;95.30;;;;;;5096422;28;19911;-72
2023/09/07 00:06:16;;;;;;;;;;;19.90;96.10;;;;;;5096037;28;19911;-72
2023/09/07 00:08:41;;;;;;;;;;;19.90;96.00;;;;;;5094879;28;19966;-72
2023/09/07 00:11:07;;;;;;;;;;;19.80;95.40;;;;;;5095572;28;20053;-72
2023/09/07 00:13:33;;;;;;;;;;;19.70;95.70;;;;;;5094576;28;19908;-72
2023/09/07 00:16:00;;;;;;;;;;;19.70;96.00;;;;;;5094671;28;19907;-72
2023/09/07 00:18:26;;;;;;;;;;;19.60;97.10;;;;;;5096071;28;19904;-72
2023/09/07 00:20:51;;;;;;;;;;;19.50;96.70;;;;;;5094550;28;19908;-72
2023/09/07 00:23:17;;;;;;;;;;;19.40;97.60;;;;;;5095849;28;19904;-72
2023/09/07 00:25:43;;;;;;;;;;;19.40;97.60;;;;;;5094554;28;20295;-72
2023/09/07 00:28:08;;;;;;;;;;;19.30;97.60;;;;;;5094230;28;19947;-72
2023/09/07 00:30:34;;;;;;;;;;;19.30;97.80;;;;;;5095597;28;20468;-72
2023/09/07 00:32:59;;;;;;;;;;;19.20;98.00;;;;;;5095858;28;19919;-72
2023/09/07 00:35:25;;;;;;;;;;;19.20;98.00;;;;;;5094415;28;19915;-71
2023/09/07 00:37:51;;;;;;;;;;;19.10;98.10;;;;;;5096027;28;20368;-72
2023/09/07 00:40:16;;;;;;;;;;;19.00;98.20;;;;;;5095577;28;20021;-72
2023/09/07 00:42:42;;;;;;;;;;;19.00;99.10;;;;;;5095549;28;19927;-72
2023/09/07 00:45:08;;;;;;;;;;;18.90;99.70;;;;;;5095509;28;19935;-72
2023/09/07 00:47:34;;;;;;;;;;;18.90;99.40;;;;;;5095891;28;19908;-71
2023/09/07 00:50:00;;;;;;;;;;;18.80;99.90;;;;;;5095530;28;19936;-72
2023/09/07 00:52:26;;;;;;;;;;;18.70;99.90;;;;;;5094278;28;19908;-71
2023/09/07 00:54:52;;;;;;;;;;;18.70;99.90;;;;;;5092534;28;19904;-72
2023/09/07 00:57:18;;;;;;;;;;;18.70;99.90;;;;;;5095313;28;19936;-72
2023/09/07 00:59:43;;;;;;;;;;;18.70;99.90;;;;;;5094022;28;20431;-72
2023/09/07 01:02:09;;;;;;;;;;;18.60;99.90;;;;;;5094825;28;19912;-71
2023/09/07 01:04:34;;;;;;;;;;;18.60;99.90;;;;;;5095581;28;19954;-72
2023/09/07 01:07:03;;;;;;;;;;;18.60;99.90;;;;;;5095578;28;20730;-72
2023/09/07 01:09:30;;;;;;;;;;;18.50;99.90;;;;;;5095032;28;19904;-72
2023/09/07 01:11:56;;;;;;;;;;;18.50;99.90;;;;;;5095436;28;20091;-72
2023/09/07 01:14:22;;;;;;;;;;;18.50;99.90;;;;;;5093973;28;19904;-72
2023/09/07 01:16:48;;;;;;;;;;;18.40;99.90;;;;;;5095273;28;19927;-72
2023/09/07 01:19:13;;;;;;;;;;;18.50;99.90;;;;;;5095464;28;19910;-72
2023/09/07 01:21:39;;;;;;;;;;;18.40;99.90;;;;;;5094465;28;20451;-72
2023/09/07 01:24:09;;;;;;;;;;;18.40;99.90;;;;;;5099253;28;19912;-72
2023/09/07 01:26:35;;;;;;;;;;;18.40;99.90;;;;;;5097956;28;19915;-72
2023/09/07 01:29:01;;;;;;;;;;;18.40;99.90;;;;;;5098577;28;19908;-72
2023/09/07 01:31:26;;;;;;;;;;;18.40;99.90;;;;;;5099274;28;19915;-72
2023/09/07 01:33:52;;;;;;;;;;;18.30;99.90;;;;;;5098540;28;19904;-72
2023/09/07 01:36:17;;;;;;;;;;;18.30;99.90;;;;;;5099018;28;19911;-72
2023/09/07 01:38:43;;;;;;;;;;;18.30;99.90;;;;;;5098977;28;19911;-71
2023/09/07 01:41:08;;;;;;;;;;;18.30;99.90;;;;;;5099010;28;19919;-72
2023/09/07 01:43:35;;;;;;;;;;;18.20;99.90;;;;;;5096801;28;19904;-72
2023/09/07 01:46:00;;;;;;;;;;;18.20;99.90;;;;;;5098544;28;20338;-72
2023/09/07 01:48:26;;;;;;;;;;;18.20;99.90;;;;;;5098635;28;19935;-72
2023/09/07 01:50:52;;;;;;;;;;;18.20;99.90;;;;;;5098943;28;19955;-72
2023/09/07 01:53:17;;;;;;;;;;;18.20;99.90;;;;;;5097517;28;19954;-72
2023/09/07 01:55:43;;;;;;;;;;;18.10;99.90;;;;;;5098406;28;19904;-72
2023/09/07 01:58:08;;;;;;;;;;;18.10;99.90;;;;;;5098331;28;19904;-72
2023/09/07 02:00:38;;;;;;;;;;;18.20;99.90;;;;;;5098545;28;19908;-72
2023/09/07 02:03:03;;;;;;;;;;;18.10;99.90;;;;;;5098327;28;19954;-72
2023/09/07 02:05:29;;;;;;;;;;;18.10;99.90;;;;;;5098620;28;19904;-72
2023/09/07 02:07:55;;;;;;;;;;;18.10;99.90;;;;;;5097009;28;20396;-72
2023/09/07 02:10:20;;;;;;;;;;;18.20;99.90;;;;;;5098408;28;19904;-72
2023/09/07 02:12:46;;;;;;;;;;;18.20;99.90;;;;;;5096459;28;19908;-71
2023/09/07 02:15:12;;;;;;;;;;;18.10;99.90;;;;;;5098390;28;19938;-72
2023/09/07 02:17:37;;;;;;;;;;;18.20;99.90;;;;;;5098235;28;19953;-72
2023/09/07 02:20:08;;;;;;;;;;;18.10;99.90;;;;;;5098165;28;19915;-72
2023/09/07 02:22:34;;;;;;;;;;;18.10;99.90;;;;;;5096575;28;19950;-72
2023/09/07 02:24:59;;;;;;;;;;;18.10;99.90;;;;;;5098197;28;19991;-72
2023/09/07 02:27:25;;;;;;;;;;;18.00;99.90;;;;;;5097744;28;19908;-72
2023/09/07 02:29:50;;;;;;;;;;;18.10;99.90;;;;;;5098035;28;19904;-72
2023/09/07 02:32:16;;;;;;;;;;;18.00;99.90;;;;;;5091496;28;19911;-72
2023/09/07 02:34:42;;;;;;;;;;;18.00;99.90;;;;;;5090342;28;19904;-72
2023/09/07 02:37:07;;;;;;;;;;;18.00;99.90;;;;;;5097849;28;20265;-72
2023/09/07 02:39:33;;;;;;;;;;;18.00;99.90;;;;;;5098054;28;19907;-72
2023/09/07 02:41:59;;;;;;;;;;;18.00;99.90;;;;;;5097534;28;19911;-72
2023/09/07 02:44:24;;;;;;;;;;;18.00;99.90;;;;;;5096059;28;19929;-71
2023/09/07 02:46:50;;;;;;;;;;;18.00;99.90;;;;;;5097374;28;19916;-72
2023/09/07 02:49:15;;;;;;;;;;;18.00;99.90;;;;;;5096248;28;19959;-72
2023/09/07 02:51:41;;;;;;;;;;;18.00;99.90;;;;;;5097324;28;19911;-71
2023/09/07 02:54:06;;;;;;;;;;;18.00;99.90;;;;;;5095922;28;19915;-72
2023/09/07 02:56:32;;;;;;;;;;;18.00;99.90;;;;;;5097325;28;19904;-72
2023/09/07 02:58:57;;;;;;;;;;;17.90;99.90;;;;;;5097067;28;20346;-72
2023/09/07 03:01:23;;;;;;;;;;;17.90;99.90;;;;;;5096816;28;19918;-72
2023/09/07 03:03:48;;;;;;;;;;;17.90;99.90;;;;;;5097328;28;19915;-71
2023/09/07 03:06:16;;;;;;;;;;;17.90;99.90;;;;;;5096453;28;19908;-71
2023/09/07 03:08:42;;;;;;;;;;;17.90;99.90;;;;;;5096934;28;19904;-71
2023/09/07 03:11:09;;;;;;;;;;;17.80;99.90;;;;;;5096940;28;19957;-71
2023/09/07 03:13:35;;;;;;;;;;;17.80;99.90;;;;;;5095490;28;19964;-72
2023/09/07 03:16:00;;;;;;;;;;;17.80;99.90;;;;;;5097162;28;19975;-71
2023/09/07 03:18:26;;;;;;;;;;;17.80;99.90;;;;;;5097174;28;19927;-72
2023/09/07 03:20:53;;;;;;;;;;;17.70;99.90;;;;;;5081008;28;19916;-72
2023/09/07 03:23:19;;;;;;;;;;;17.70;99.90;;;;;;5089594;28;20387;-72
2023/09/07 03:25:44;;;;;;;;;;;17.70;99.90;;;;;;5096916;28;19908;-72
2023/09/07 03:28:10;;;;;;;;;;;17.70;99.90;;;;;;5095306;28;19910;-72
2023/09/07 03:30:35;;;;;;;;;;;17.70;99.90;;;;;;5096809;28;19914;-72
2023/09/07 03:33:03;;;;;;;;;;;17.70;99.90;;;;;;5096903;28;19910;-72
2023/09/07 03:35:28;;;;;;;;;;;17.60;99.90;;;;;;5096517;28;19904;-72
2023/09/07 03:37:54;;;;;;;;;;;17.60;99.90;;;;;;5096851;28;19975;-72
2023/09/07 03:40:20;;;;;;;;;;;17.60;99.90;;;;;;5096350;28;20011;-72
2023/09/07 03:42:46;;;;;;;;;;;17.60;99.90;;;;;;5095086;28;19930;-72
2023/09/07 03:45:11;;;;;;;;;;;17.50;99.90;;;;;;5094033;28;20256;-72
2023/09/07 03:47:37;;;;;;;;;;;17.60;99.90;;;;;;5096532;28;19904;-72
2023/09/07 03:50:03;;;;;;;;;;;17.50;99.90;;;;;;5096479;28;20391;-72
2023/09/07 03:52:29;;;;;;;;;;;17.50;99.90;;;;;;5096380;28;20002;-72
2023/09/07 03:54:55;;;;;;;;;;;17.50;99.90;;;;;;5096442;28;19946;-71
2023/09/07 03:57:21;;;;;;;;;;;17.50;99.90;;;;;;5096124;28;20401;-72
2023/09/07 03:59:47;;;;;;;;;;;17.40;99.90;;;;;;5096071;28;19987;-72
2023/09/07 04:02:12;;;;;;;;;;;17.50;99.90;;;;;;5096350;28;19973;-72
2023/09/07 04:04:38;;;;;;;;;;;17.40;99.90;;;;;;5096208;28;19904;-72
2023/09/07 04:07:04;;;;;;;;;;;17.40;99.90;;;;;;5096330;28;19904;-72
2023/09/07 04:09:29;;;;;;;;;;;17.40;99.90;;;;;;5096191;28;20016;-72
2023/09/07 04:11:55;;;;;;;;;;;17.40;99.90;;;;;;5096176;28;19919;-72
2023/09/07 04:14:20;;;;;;;;;;;17.40;99.90;;;;;;5095727;28;19978;-71
2023/09/07 04:16:46;;;;;;;;;;;17.40;99.90;;;;;;5096164;28;19908;-72
2023/09/07 04:19:11;;;;;;;;;;;17.40;99.90;;;;;;5096006;28;20002;-72
2023/09/07 04:21:38;;;;;;;;;;;17.40;99.90;;;;;;5094373;28;20391;-72
2023/09/07 04:24:04;;;;;;;;;;;17.40;99.90;;;;;;5095518;28;19911;-71
2023/09/07 04:26:29;;;;;;;;;;;17.30;99.90;;;;;;5094636;28;19904;-72
2023/09/07 04:28:55;;;;;;;;;;;17.30;99.90;;;;;;5095577;28;19908;-72
2023/09/07 04:31:21;;;;;;;;;;;17.30;99.90;;;;;;5094578;28;19912;-72
2023/09/07 04:33:46;;;;;;;;;;;17.30;99.90;;;;;;5095675;28;20389;-72
2023/09/07 04:36:13;;;;;;;;;;;17.30;99.90;;;;;;5095998;28;20273;-72
2023/09/07 04:38:38;;;;;;;;;;;17.30;99.90;;;;;;5095586;28;19904;-72
2023/09/07 04:41:08;;;;;;;;;;;17.30;99.90;;;;;;5095730;28;19915;-72
2023/09/07 04:43:34;;;;;;;;;;;17.30;99.90;;;;;;5095040;28;19951;-72
2023/09/07 04:45:59;;;;;;;;;;;17.30;99.90;;;;;;5095819;28;19924;-72
2023/09/07 04:48:25;;;;;;;;;;;17.30;99.90;;;;;;5095435;28;20012;-72
2023/09/07 04:51:00;;;;;;;;;;;17.30;99.90;;;;;;5095645;28;19908;-72
2023/09/07 04:53:28;;;;;;;;;;;17.20;99.90;;;;;;5094001;28;19903;-72
2023/09/07 04:55:53;;;;;;;;;;;17.20;99.90;;;;;;5094531;28;19904;-72
2023/09/07 04:58:19;;;;;;;;;;;17.30;99.90;;;;;;5097668;28;19998;-72
2023/09/07 05:00:44;;;;;;;;;;;17.30;99.90;;;;;;5098401;28;19908;-73
2023/09/07 05:03:10;;;;;;;;;;;17.20;99.90;;;;;;5098439;28;19908;-72
2023/09/07 05:05:35;;;;;;;;;;;17.30;99.90;;;;;;5099644;28;19955;-72
2023/09/07 05:08:01;;;;;;;;;;;17.30;99.90;;;;;;5099548;28;19904;-72
2023/09/07 05:10:26;;;;;;;;;;;17.30;99.90;;;;;;5099584;28;20315;-71
2023/09/07 05:12:52;;;;;;;;;;;17.40;99.90;;;;;;5097739;28;20398;-72
2023/09/07 05:15:17;;;;;;;;;;;17.40;99.90;;;;;;5099672;28;20388;-72
2023/09/07 05:17:43;;;;;;;;;;;17.50;99.90;;;;;;5099357;28;20439;-73
2023/09/07 05:20:09;;;;;;;;;;;17.70;99.90;;;;;;5099271;28;20431;-72
2023/09/07 05:22:37;;;;;;;;;;;17.90;99.90;;;;;;5099152;28;19904;-72
2023/09/07 05:25:03;;;;;;;;;;;17.90;99.90;;;;;;5099233;28;19914;-73
2023/09/07 05:27:28;;;;;;;;;;;17.90;99.90;;;;;;5097748;28;19995;-72
2023/09/07 05:29:54;;;;;;;;;;;18.00;99.90;;;;;;5097747;28;19957;-72
2023/09/07 05:32:19;;;;;;;;;;;18.00;99.90;;;;;;5097875;28;19904;-72
2023/09/07 05:34:45;;;;;;;;;;;18.00;99.90;;;;;;5099000;28;19908;-72
2023/09/07 05:37:10;;;;;;;;;;;18.00;99.90;;;;;;5099145;28;19949;-72
2023/09/07 05:39:36;;;;;;;;;;;18.20;99.90;;;;;;5099147;28;19904;-72
2023/09/07 05:42:01;;;;;;;;;;;18.30;99.90;;;;;;5098471;28;19914;-72
2023/09/07 05:44:27;;;;;;;;;;;18.40;99.90;;;;;;5099129;28;19991;-73
2023/09/07 05:46:54;;;;;;;;;;;18.40;99.90;;;;;;5098414;28;20395;-71
2023/09/07 05:49:19;;;;;;;;;;;18.60;99.90;;;;;;5098984;28;19908;-73
2023/09/07 05:51:45;;;;;;;;;;;18.70;99.90;;;;;;5098443;28;19957;-73
2023/09/07 05:54:11;;;;;;;;;;;18.80;99.90;;;;;;5098162;28;19920;-74
2023/09/07 05:56:37;;;;;;;;;;;18.90;99.90;;;;;;5098497;28;19904;-74
2023/09/07 05:59:02;;;;;;;;;;;19.10;99.90;;;;;;5098549;28;19911;-76
2023/09/07 06:01:28;;;;;;;;;;;19.30;99.90;;;;;;5098262;28;19916;-73
2023/09/07 06:03:54;;;;;;;;;;;19.30;99.90;;;;;;5098719;28;20412;-73
2023/09/07 06:06:19;;;;;;;;;;;19.50;99.90;;;;;;5098466;28;19970;-75
2023/09/07 06:08:45;;;;;;;;;;;19.60;99.90;;;;;;5097675;28;20283;-74
2023/09/07 06:11:10;;;;;;;;;;;19.60;99.90;;;;;;5097925;28;19907;-73
2023/09/07 06:13:36;;;;;;;;;;;19.60;99.90;;;;;;5098110;28;19904;-73
2023/09/07 06:16:02;;;;;;;;;;;19.70;99.90;;;;;;5096959;28;19911;-75
2023/09/07 06:18:28;;;;;;;;;;;19.80;99.90;;;;;;5098261;28;20359;-74
2023/09/07 06:20:54;;;;;;;;;;;19.80;99.90;;;;;;5097852;28;19935;-77
2023/09/07 06:23:19;;;;;;;;;;;19.90;99.90;;;;;;5097732;28;19912;-76
2023/09/07 06:25:45;;;;;;;;;;;19.90;99.90;;;;;;5098235;28;19950;-75
2023/09/07 06:28:10;;;;;;;;;;;20.00;99.90;;;;;;5097655;28;19970;-75
2023/09/07 06:30:36;;;;;;;;;;;20.10;99.90;;;;;;5097468;28;19942;-76
2023/09/07 06:33:01;;;;;;;;;;;20.20;99.90;;;;;;5084177;28;19962;-74
2023/09/07 06:35:27;;;;;;;;;;;20.20;99.90;;;;;;5096774;28;19904;-76
2023/09/07 06:37:52;;;;;;;;;;;20.30;99.90;;;;;;5085893;28;20392;-75
2023/09/07 06:40:18;;;;;;;;;;;20.40;99.90;;;;;;5090273;28;20280;-76
2023/09/07 06:42:44;;;;;;;;;;;20.50;99.90;;;;;;5091767;28;20375;-76
2023/09/07 06:45:10;;;;;;;;;;;20.50;99.90;;;;;;5092443;28;19926;-76
2023/09/07 06:47:36;;;;;;;;;;;20.60;99.90;;;;;;5095934;28;20003;-77
2023/09/07 06:50:01;;;;;;;;;;;20.60;99.90;;;;;;5093640;28;20367;-75
2023/09/07 06:52:27;;;;;;;;;;;20.70;99.90;;;;;;5094660;28;19983;-77
2023/09/07 06:54:53;;;;;;;;;;;20.70;99.90;;;;;;5089249;28;19914;-77
2023/09/07 06:57:19;;;;;;;;;;;20.70;99.90;;;;;;5089598;28;19910;-77
2023/09/07 06:59:45;;;;;;;;;;;20.90;99.90;;;;;;5091419;28;19975;-72
2023/09/07 07:02:10;;;;;;;;;;;21.00;99.90;;;;;;5095677;28;20657;-74
2023/09/07 07:04:36;;;;;;;;;;;21.00;99.90;;;;;;5095399;28;20003;-73
2023/09/07 07:07:04;;;;;;;;;;;21.10;99.90;;;;;;5094923;28;19954;-73
2023/09/07 07:09:32;;;;;;;;;;;21.20;99.90;;;;;;5095398;28;19990;-72
2023/09/07 07:12:01;;;;;;;;;;;21.20;99.90;;;;;;5095990;28;19922;-73
2023/09/07 07:14:26;;;;;;;;;;;21.30;99.90;;;;;;5096111;28;20541;-73
2023/09/07 07:16:52;;;;;;;;;;;21.40;99.90;;;;;;5094551;28;19947;-75
2023/09/07 07:19:17;;;;;;;;;;;21.50;99.90;;;;;;5092957;28;19904;-72
2023/09/07 07:21:43;;;;;;;;;;;21.60;99.90;;;;;;5087853;28;19911;-73
2023/09/07 07:24:08;;;;;;;;;;;21.70;99.90;;;;;;5091724;28;19908;-72
2023/09/07 07:26:34;;;;;;;;;;;21.70;99.90;;;;;;5089482;28;19965;-74
2023/09/07 07:29:00;;;;;;;;;;;21.70;99.90;;;;;;5087605;28;19908;-73
2023/09/07 07:31:25;;;;;;;;;;;21.80;99.90;;;;;;5093904;28;19950;-72
2023/09/07 07:33:51;;;;;;;;;;;21.90;99.90;;;;;;5089472;28;19919;-73
2023/09/07 07:36:16;;;;;;;;;;;22.00;99.90;;;;;;5091413;28;20665;-72
2023/09/07 07:38:42;;;;;;;;;;;22.00;99.90;;;;;;5092377;28;20323;-72
2023/09/07 07:41:07;;;;;;;;;;;22.10;99.60;;;;;;5091782;28;19997;-73
2023/09/07 07:43:33;;;;;;;;;;;22.20;99.90;;;;;;5089723;28;19911;-74
2023/09/07 07:45:59;;;;;;;;;;;22.30;99.60;;;;;;5094570;28;19924;-72
2023/09/07 07:48:24;;;;;;;;;;;22.30;99.90;;;;;;5092153;28;19911;-73
2023/09/07 07:50:50;;;;;;;;;;;22.40;99.50;;;;;;5093682;28;20017;-73
2023/09/07 07:53:16;;;;;;;;;;;22.50;99.40;;;;;;5089505;28;20008;-73
2023/09/07 07:55:41;;;;;;;;;;;22.60;99.80;;;;;;5091805;28;19912;-73
2023/09/07 07:58:07;;;;;;;;;;;22.70;98.80;;;;;;5087720;28;19911;-74
2023/09/07 08:00:34;;;;;;;;;;;22.80;99.00;;;;;;5093021;28;20013;-73
2023/09/07 08:03:02;;;;;;;;;;;22.80;98.10;;;;;;5091980;28;19908;-74
2023/09/07 08:05:27;;;;;;;;;;;22.90;98.10;;;;;;5093544;28;19915;-74
2023/09/07 08:07:53;;;;;;;;;;;23.00;98.80;;;;;;5084073;28;19908;-73
2023/09/07 08:10:19;;;;;;;;;;;23.10;97.90;;;;;;5095053;28;19973;-72
2023/09/07 08:12:44;;;;;;;;;;;23.20;97.80;;;;;;5092808;28;19990;-72
2023/09/07 08:15:10;;;;;;;;;;;23.30;97.20;;;;;;5094682;28;19904;-74
2023/09/07 08:17:35;;;;;;;;;;;23.50;97.70;;;;;;5094085;28;19961;-75
2023/09/07 08:20:02;;;;;;;;;;;23.60;96.30;;;;;;5094388;28;20056;-73
2023/09/07 08:22:28;;;;;;;;;;;23.70;96.50;;;;;;5093669;28;20363;-73
2023/09/07 08:24:55;;;;;;;;;;;23.80;96.40;;;;;;5090323;28;20272;-72
2023/09/07 08:27:21;;;;;;;;;;;23.80;96.00;;;;;;5090386;28;19908;-72
2023/09/07 08:29:48;;;;;;;;;;;24.00;95.90;;;;;;5089994;28;19931;-73
2023/09/07 08:32:14;;;;;;;;;;;24.00;95.60;;;;;;5090692;28;19966;-73
2023/09/07 08:34:41;;;;;;;;;;;24.20;95.60;;;;;;5091200;28;19908;-73
2023/09/07 08:37:08;;;;;;;;;;;24.30;96.00;;;;;;5089607;28;19904;-73
2023/09/07 08:39:34;;;;;;;;;;;24.40;94.70;;;;;;5093901;28;20514;-72
2023/09/07 08:42:00;;;;;;;;;;;24.40;94.30;;;;;;5089387;28;19939;-73
2023/09/07 08:44:26;;;;;;;;;;;24.40;94.10;;;;;;5092576;28;19904;-74
2023/09/07 08:46:52;;;;;;;;;;;24.40;94.70;;;;;;5092143;28;19916;-72
2023/09/07 08:49:23;;;;;;;;;;;24.60;94.50;;;;;;5091470;28;19911;-72
2023/09/07 08:51:48;;;;;;;;;;;24.60;94.60;;;;;;5090521;28;19908;-72
2023/09/07 08:54:14;;;;;;;;;;;24.80;93.90;;;;;;5094442;28;19908;-76
2023/09/07 08:56:39;;;;;;;;;;;24.90;93.80;;;;;;5089796;28;19908;-75
2023/09/07 08:59:05;;;;;;;;;;;24.90;93.40;;;;;;5093914;28;19954;-76
2023/09/07 09:01:32;;;;;;;;;;;25.00;93.40;;;;;;5092068;28;19952;-74
2023/09/07 09:03:58;;;;;;;;;;;25.00;93.10;;;;;;5087027;28;19908;-74
2023/09/07 09:06:23;;;;;;;;;;;25.10;93.00;;;;;;5089072;28;19919;-77
2023/09/07 09:08:58;;;;;;;;;;;25.20;92.70;;;;;;5086907;28;19995;-76
2023/09/07 09:11:24;;;;;;;;;;;25.30;92.60;;;;;;5084808;28;19925;-76
2023/09/07 09:13:51;;;;;;;;;;;25.40;92.50;;;;;;5091545;28;19915;-75
2023/09/07 09:16:16;;;;;;;;;;;25.40;91.90;;;;;;5091516;28;19908;-76
2023/09/07 09:18:52;;;;;;;;;;;25.50;92.30;;;;;;5090048;28;20386;-75
2023/09/07 09:21:19;;;;;;;;;;;25.50;91.90;;;;;;5089077;28;19908;-81
2023/09/07 09:23:47;;;;;;;;;;;25.50;92.60;;;;;;5089505;28;19912;-75
2023/09/07 09:26:13;;;;;;;;;;;25.70;91.20;;;;;;5089204;28;19915;-76
2023/09/07 09:28:39;;;;;;;;;;;25.80;92.60;;;;;;5091825;28;19904;-77
2023/09/07 09:31:04;;;;;;;;;;;25.90;91.70;;;;;;5092791;28;20600;-76
2023/09/07 09:33:30;;;;;;;;;;;25.80;91.50;;;;;;5090724;28;19954;-77
2023/09/07 09:35:56;;;;;;;;;;;25.90;91.80;;;;;;5094309;28;19912;-77
2023/09/07 09:38:22;;;;;;;;;;;25.90;91.60;;;;;;5090627;28;19910;-76
2023/09/07 09:40:47;;;;;;;;;;;26.00;91.30;;;;;;5091530;28;19930;-75
2023/09/07 09:43:13;;;;;;;;;;;26.10;91.70;;;;;;5092120;28;19908;-77
2023/09/07 09:45:39;;;;;;;;;;;26.10;91.50;;;;;;5092105;28;19916;-75
2023/09/07 09:48:05;;;;;;;;;;;26.20;90.90;;;;;;5089641;28;19912;-77
2023/09/07 09:50:31;;;;;;;;;;;26.30;91.20;;;;;;5095886;28;19912;-74
2023/09/07 09:52:58;;;;;;;;;;;26.40;91.40;;;;;;5094592;28;20281;-75
2023/09/07 09:55:23;;;;;;;;;;;26.40;91.40;;;;;;5093119;28;19911;-76
2023/09/07 09:57:50;;;;;;;;;;;26.50;90.80;;;;;;5094450;28;20280;-75
2023/09/07 10:00:25;;;;;;;;;;;26.50;90.80;;;;;;5091640;28;19951;-74
2023/09/07 10:02:54;;;;;;;;;;;26.60;91.40;;;;;;5095585;28;19912;-75
2023/09/07 10:05:20;;;;;;;;;;;26.60;90.80;;;;;;5095991;28;19908;-73
2023/09/07 10:07:48;;;;;;;;;;;26.60;90.90;;;;;;5087618;28;19920;-76
2023/09/07 10:10:17;;;;;;;;;;;26.70;90.80;;;;;;5092325;28;19915;-76
2023/09/07 10:12:50;;;;;;;;;;;26.80;90.50;;;;;;5094570;28;20360;-76
2023/09/07 10:15:23;;;;;;;;;;;26.90;90.40;;;;;;5096591;28;19965;-77
2023/09/07 10:17:52;;;;;;;;;;;26.90;90.10;;;;;;5090130;28;19915;-75
2023/09/07 10:20:18;;;;;;;;;;;27.00;88.20;;;;;;5092066;28;20113;-77
2023/09/07 10:22:45;;;;;;;;;;;27.10;89.00;;;;;;5092962;28;19981;-75
2023/09/07 10:25:22;;;;;;;;;;;27.00;87.30;;;;;;5095099;28;19975;-81
2023/09/07 10:27:48;;;;;;;;;;;27.00;88.10;;;;;;5091430;28;19986;-76
2023/09/07 10:30:19;;;;;;;;;;;27.20;87.20;;;;;;5092385;28;19947;-77
2023/09/07 10:32:44;;;;;;;;;;;27.20;88.10;;;;;;5094292;28;19908;-75
2023/09/07 10:35:14;;;;;;;;;;;27.30;88.90;;;;;;5090066;28;19912;-76
2023/09/07 10:37:40;;;;;;;;;;;27.40;89.10;;;;;;5095040;28;20002;-76
2023/09/07 10:40:11;;;;;;;;;;;27.40;87.00;;;;;;5091677;28;20411;-78
2023/09/07 10:42:37;;;;;;;;;;;27.60;87.80;;;;;;5090700;28;19911;-77
2023/09/07 10:45:15;;;;;;;;;;;27.60;86.70;;;;;;5094087;28;19923;-75
2023/09/07 10:47:42;;;;;;;;;;;27.50;90.20;;;;;;5091071;28;19994;-76
2023/09/07 10:50:08;;;;;;;;;;;27.60;88.80;;;;;;5092009;28;20399;-76
2023/09/07 10:52:33;;;;;;;;;;;27.70;87.60;;;;;;5095589;28;19911;-75
2023/09/07 10:54:59;;;;;;;;;;;27.80;88.10;;;;;;5089287;28;19908;-75
2023/09/07 10:57:24;;;;;;;;;;;27.80;88.90;;;;;;5093352;28;20407;-78
2023/09/07 10:59:54;;;;;;;;;;;27.90;86.90;;;;;;5095133;28;19911;-75
2023/09/07 11:02:20;;;;;;;;;;;27.90;85.80;;;;;;5094388;28;19915;-77
2023/09/07 11:04:45;;;;;;;;;;;28.00;87.80;;;;;;5093342;28;19908;-75
2023/09/07 11:07:11;;;;;;;;;;;28.00;86.80;;;;;;5093301;28;19908;-78
2023/09/07 11:09:43;;;;;;;;;;;28.10;86.50;;;;;;5095397;28;20260;-77
2023/09/07 11:12:12;;;;;;;;;;;28.00;84.80;;;;;;5091313;28;20256;-77
2023/09/07 11:14:38;;;;;;;;;;;28.10;85.10;;;;;;5095942;28;19950;-75
2023/09/07 11:17:04;;;;;;;;;;;28.00;85.10;;;;;;5094261;28;19907;-79
2023/09/07 11:19:33;;;;;;;;;;;28.00;84.30;;;;;;5095515;28;20390;-78
2023/09/07 11:21:59;;;;;;;;;;;28.10;85.40;;;;;;5094759;28;19964;-77
2023/09/07 11:24:25;;;;;;;;;;;28.10;84.90;;;;;;5094912;28;20003;-78
2023/09/07 11:26:51;;;;;;;;;;;28.20;84.50;;;;;;5093684;28;19998;-77
2023/09/07 11:29:18;;;;;;;;;;;28.20;85.30;;;;;;5095530;28;19961;-77
2023/09/07 11:31:44;;;;;;;;;;;28.40;85.10;;;;;;5093456;28;19915;-77
2023/09/07 11:34:13;;;;;;;;;;;28.50;85.80;;;;;;5095216;28;19907;-76
2023/09/07 11:36:42;;;;;;;;;;;28.50;84.50;;;;;;5094446;28;19912;-76
2023/09/07 11:39:12;;;;;;;;;;;28.60;83.60;;;;;;5095154;28;20421;-76
2023/09/07 11:41:38;;;;;;;;;;;28.70;83.90;;;;;;5093619;28;19920;-77
2023/09/07 11:44:04;;;;;;;;;;;28.70;82.80;;;;;;5094709;28;19908;-75
2023/09/07 11:46:30;;;;;;;;;;;28.90;82.70;;;;;;5090153;28;20049;-77
2023/09/07 11:48:56;;;;;;;;;;;28.90;82.50;;;;;;5094320;28;20424;-76
2023/09/07 11:51:21;;;;;;;;;;;29.00;82.60;;;;;;5088701;28;19927;-78
2023/09/07 11:53:47;;;;;;;;;;;29.00;84.90;;;;;;5093263;28;19904;-77
2023/09/07 11:56:12;;;;;;;;;;;29.20;82.00;;;;;;5093594;28;20592;-76
2023/09/07 11:58:38;;;;;;;;;;;29.20;81.40;;;;;;5089915;28;20534;-76
2023/09/07 12:01:04;;;;;;;;;;;29.10;80.70;;;;;;5090044;28;19916;-76
2023/09/07 12:03:30;;;;;;;;;;;29.10;81.80;;;;;;5093904;28;20401;-77
2023/09/07 12:05:56;;;;;;;;;;;29.10;80.40;;;;;;5088351;28;19911;-76
2023/09/07 12:08:21;;;;;;;;;;;29.10;80.60;;;;;;5092781;28;19908;-76
2023/09/07 12:10:47;;;;;;;;;;;29.10;80.60;;;;;;5093095;28;19904;-76
2023/09/07 12:13:12;;;;;;;;;;;29.20;81.20;;;;;;5091115;28;19918;-75
2023/09/07 12:15:38;;;;;;;;;;;29.30;81.70;;;;;;5093561;28;19912;-76
2023/09/07 12:18:04;;;;;;;;;;;29.40;80.40;;;;;;5090964;28;19904;-77
2023/09/07 12:20:29;;;;;;;;;;;29.30;79.80;;;;;;5089089;28;20653;-76
2023/09/07 12:22:55;;;;;;;;;;;29.40;80.90;;;;;;5093419;28;19908;-75
2023/09/07 12:25:20;;;;;;;;;;;29.50;81.70;;;;;;5089049;28;19950;-78
2023/09/07 12:27:46;;;;;;;;;;;29.70;79.40;;;;;;5092214;28;19908;-77
2023/09/07 12:30:13;;;;;;;;;;;29.60;77.50;;;;;;5093226;28;19907;-76
2023/09/07 12:32:41;;;;;;;;;;;29.50;78.60;;;;;;5091533;28;19904;-76
2023/09/07 12:35:08;;;;;;;;;;;29.50;78.70;;;;;;5091372;28;19909;-76
2023/09/07 12:37:35;;;;;;;;;;;29.70;77.80;;;;;;5090190;28;19915;-79
2023/09/07 12:40:00;;;;;;;;;;;29.80;77.30;;;;;;5084547;28;19923;-78
2023/09/07 12:42:26;;;;;;;;;;;29.80;76.30;;;;;;5092551;28;19915;-76
2023/09/07 12:44:51;;;;;;;;;;;29.90;75.30;;;;;;5086673;28;20289;-75
2023/09/07 12:47:17;;;;;;;;;;;29.90;75.10;;;;;;5091156;28;20259;-79
2023/09/07 12:49:42;;;;;;;;;;;29.90;75.20;;;;;;5091120;28;19927;-79
2023/09/07 12:52:09;;;;;;;;;;;30.00;75.80;;;;;;5093229;28;19919;-76
2023/09/07 12:54:36;;;;;;;;;;;30.10;73.50;;;;;;5085779;28;19908;-77
2023/09/07 12:57:02;;;;;;;;;;;30.10;74.50;;;;;;5092127;28;19912;-76
2023/09/07 12:59:29;;;;;;;;;;;30.10;73.60;;;;;;5089366;28;19961;-77
2023/09/07 13:01:55;;;;;;;;;;;30.20;73.30;;;;;;5088626;28;20395;-73
2023/09/07 13:04:21;;;;;;;;;;;30.20;74.00;;;;;;5092951;28;19915;-72
2023/09/07 13:06:47;;;;;;;;;;;30.20;73.60;;;;;;5090329;28;19916;-73
2023/09/07 13:09:13;;;;;;;;;;;30.20;73.20;;;;;;5091673;28;19922;-75
2023/09/07 13:11:39;;;;;;;;;;;30.30;73.10;;;;;;5091963;28;19957;-73
2023/09/07 13:14:04;;;;;;;;;;;30.30;70.90;;;;;;5083422;28;19908;-73
2023/09/07 13:16:32;;;;;;;;;;;30.40;71.00;;;;;;5090958;28;20005;-74
2023/09/07 13:18:58;;;;;;;;;;;30.50;69.30;;;;;;5095528;28;19955;-73
2023/09/07 13:21:23;;;;;;;;;;;30.50;70.40;;;;;;5096351;28;19915;-73
2023/09/07 13:23:49;;;;;;;;;;;30.60;69.70;;;;;;5096933;28;20423;-73
2023/09/07 13:26:15;;;;;;;;;;;30.60;68.60;;;;;;5094529;28;19919;-73
2023/09/07 13:28:40;;;;;;;;;;;30.70;71.00;;;;;;5092734;28;19905;-73
2023/09/07 13:31:06;;;;;;;;;;;30.70;70.50;;;;;;5094085;28;19915;-76
2023/09/07 13:33:32;;;;;;;;;;;30.80;69.60;;;;;;5089638;28;19999;-76
2023/09/07 13:35:57;;;;;;;;;;;30.80;68.90;;;;;;5096426;28;19907;-77
2023/09/07 13:38:23;;;;;;;;;;;30.90;71.40;;;;;;5092740;28;19966;-74
2023/09/07 13:40:49;;;;;;;;;;;31.00;70.80;;;;;;5094234;28;19908;-74
2023/09/07 13:43:14;;;;;;;;;;;31.10;68.70;;;;;;5096029;28;19908;-75
2023/09/07 13:45:40;;;;;;;;;;;31.10;69.10;;;;;;5097510;28;20269;-75
2023/09/07 13:48:06;;;;;;;;;;;31.10;69.60;;;;;;5093822;28;19914;-74
2023/09/07 13:50:31;;;;;;;;;;;31.20;68.60;;;;;;5097276;28;19911;-74
2023/09/07 13:52:57;;;;;;;;;;;31.20;69.30;;;;;;5092006;28;19952;-75
2023/09/07 13:55:23;;;;;;;;;;;31.20;70.20;;;;;;5097007;28;20031;-75
2023/09/07 13:57:48;;;;;;;;;;;31.20;68.30;;;;;;5086791;28;19912;-72
2023/09/07 14:00:14;;;;;;;;;;;31.30;67.80;;;;;;5090235;28;19909;-74
2023/09/07 14:02:40;;;;;;;;;;;31.30;66.80;;;;;;5094634;28;19915;-73
2023/09/07 14:05:05;;;;;;;;;;;31.40;66.30;;;;;;5095889;28;19949;-72
2023/09/07 14:07:31;;;;;;;;;;;31.40;65.10;;;;;;5089320;28;19912;-72
2023/09/07 14:09:56;;;;;;;;;;;31.50;67.40;;;;;;5096253;28;19904;-73